Aviation Digital Data Service (ADDS)

Output produced by METARs form (1944 UTC 19 August 2019)
found at http://www.aviationweather.gov/metar/data/
 
METAR text: RORS 191000Z 13004KT 9999 -SHRA FEW015 BKN020 BKN080 26/25 Q1004
Conditions at: RORS (SHIMOJI-SHIMA IS, JP) observed 1000 UTC 19 August 2019
Temperature: 26.0°C (79°F)
Dewpoint: 25.0°C (77°F) [RH = 94%]
Pressure (altimeter): 29.65 inches Hg (1004.0 mb)
Winds: from the SE (130 degrees) at 5 MPH (4 knots; 2.1 m/s)
Visibility: 6 or more miles (10+ km)
Ceiling: 2000 feet AGL
Clouds: few clouds at 1500 feet AGL
broken clouds at 2000 feet AGL
broken clouds at 8000 feet AGL
Weather: -SHRA  (light rain showers)

METAR text: RORS 190929Z 04003KT 350V070 9999 -SHRA SCT015 FEW020TCU BKN045 BKN080 26/25 Q1004 RMK 3CU015 2TCU020 5SC045 6AC080 A2965 4000SE TCU 5KM SE STNR
Conditions at: RORS (SHIMOJI-SHIMA IS, JP) observed 0929 UTC 19 August 2019
Temperature: 26.0°C (79°F)
Dewpoint: 25.0°C (77°F) [RH = 94%]
Pressure (altimeter): 29.65 inches Hg (1004.0 mb)
Winds: from the NE (40 degrees) at 3 MPH (3 knots; 1.5 m/s)
Visibility: 6 or more miles (10+ km)
Ceiling: 4500 feet AGL
Clouds: scattered clouds at 1500 feet AGL
few clouds at 2000 feet AGL
broken clouds at 4500 feet AGL
broken clouds at 8000 feet AGL
Weather: -SHRA  (light rain showers)

METAR text: RORS 190900Z 12007KT 2000 R17/1100V1800N +SHRA BR SCT010 BKN015 FEW020TCU 27/25 Q1004
Conditions at: RORS (SHIMOJI-SHIMA IS, JP) observed 0900 UTC 19 August 2019
Temperature: 27.0°C (81°F)
Dewpoint: 25.0°C (77°F) [RH = 89%]
Pressure (altimeter): 29.65 inches Hg (1004.0 mb)
Winds: from the ESE (120 degrees) at 8 MPH (7 knots; 3.6 m/s)
Visibility: 1.24 miles (2.00 km)
Ceiling: 1500 feet AGL
Clouds: scattered clouds at 1000 feet AGL
broken clouds at 1500 feet AGL
few clouds at 2000 feet AGL
Weather: +SHRA BR  (heavy rain showers, mist)

METAR text: RORS 190800Z 17005KT 9999 VCSH SCT014 BKN170 29/26 Q1003
Conditions at: RORS (SHIMOJI-SHIMA IS, JP) observed 0800 UTC 19 August 2019
Temperature: 29.0°C (84°F)
Dewpoint: 26.0°C (79°F) [RH = 84%]
Pressure (altimeter): 29.62 inches Hg (1003.0 mb)
Winds: from the S (170 degrees) at 6 MPH (5 knots; 2.6 m/s)
Visibility: 6 or more miles (10+ km)
Ceiling: 17000 feet AGL
Clouds: scattered clouds at 1400 feet AGL
broken clouds at 17000 feet AGL
Weather: VCSH  (showers in vicinity)

METAR text: RORS 190700Z 14008KT 9999 -SHRA FEW011 FEW020TCU BKN150 29/26 Q1003
Conditions at: RORS (SHIMOJI-SHIMA IS, JP) observed 0700 UTC 19 August 2019
Temperature: 29.0°C (84°F)
Dewpoint: 26.0°C (79°F) [RH = 84%]
Pressure (altimeter): 29.62 inches Hg (1003.0 mb)
Winds: from the SE (140 degrees) at 9 MPH (8 knots; 4.1 m/s)
Visibility: 6 or more miles (10+ km)
Ceiling: 15000 feet AGL
Clouds: few clouds at 1100 feet AGL
few clouds at 2000 feet AGL
broken clouds at 15000 feet AGL
Weather: -SHRA  (light rain showers)

METAR text: RORS 190600Z 15007KT 110V190 9999 VCSH SCT015 BKN150 29/26 Q1003
Conditions at: RORS (SHIMOJI-SHIMA IS, JP) observed 0600 UTC 19 August 2019
Temperature: 29.0°C (84°F)
Dewpoint: 26.0°C (79°F) [RH = 84%]
Pressure (altimeter): 29.62 inches Hg (1003.0 mb)
Winds: from the SSE (150 degrees) at 8 MPH (7 knots; 3.6 m/s)
Visibility: 6 or more miles (10+ km)
Ceiling: 15000 feet AGL
Clouds: scattered clouds at 1500 feet AGL
broken clouds at 15000 feet AGL
Weather: VCSH  (showers in vicinity)

METAR text: RORS 190500Z 12003KT 040V180 9999 VCSH SCT012 BKN160 29/26 Q1004
Conditions at: RORS (SHIMOJI-SHIMA IS, JP) observed 0500 UTC 19 August 2019
Temperature: 29.0°C (84°F)
Dewpoint: 26.0°C (79°F) [RH = 84%]
Pressure (altimeter): 29.65 inches Hg (1004.0 mb)
Winds: from the ESE (120 degrees) at 3 MPH (3 knots; 1.5 m/s)
Visibility: 6 or more miles (10+ km)
Ceiling: 16000 feet AGL
Clouds: scattered clouds at 1200 feet AGL
broken clouds at 16000 feet AGL
Weather: VCSH  (showers in vicinity)

METAR text: RORS 190400Z 07003KT 030V130 9999 -SHRA FEW010 SCT080 BKN160 28/26 Q1005
Conditions at: RORS (SHIMOJI-SHIMA IS, JP) observed 0400 UTC 19 August 2019
Temperature: 28.0°C (82°F)
Dewpoint: 26.0°C (79°F) [RH = 89%]
Pressure (altimeter): 29.68 inches Hg (1005.0 mb)
Winds: from the ENE (70 degrees) at 3 MPH (3 knots; 1.5 m/s)
Visibility: 6 or more miles (10+ km)
Ceiling: 16000 feet AGL
Clouds: few clouds at 1000 feet AGL
scattered clouds at 8000 feet AGL
broken clouds at 16000 feet AGL
Weather: -SHRA  (light rain showers)

METAR text: RORS 190316Z 10003KT 070V130 9999 -SHRA FEW020 SCT040 BKN080 27/25 Q1005 RMK 2CU020 3SC040 6AC080 A2969
Conditions at: RORS (SHIMOJI-SHIMA IS, JP) observed 0316 UTC 19 August 2019
Temperature: 27.0°C (81°F)
Dewpoint: 25.0°C (77°F) [RH = 89%]
Pressure (altimeter): 29.68 inches Hg (1005.0 mb)
Winds: from the E (100 degrees) at 3 MPH (3 knots; 1.5 m/s)
Visibility: 6 or more miles (10+ km)
Ceiling: 8000 feet AGL
Clouds: few clouds at 2000 feet AGL
scattered clouds at 4000 feet AGL
broken clouds at 8000 feet AGL
Weather: -SHRA  (light rain showers)

METAR text: RORS 190300Z 12005KT 9999 SHRA BR SCT011 BKN060 27/25 Q1005
Conditions at: RORS (SHIMOJI-SHIMA IS, JP) observed 0300 UTC 19 August 2019
Temperature: 27.0°C (81°F)
Dewpoint: 25.0°C (77°F) [RH = 89%]
Pressure (altimeter): 29.68 inches Hg (1005.0 mb)
Winds: from the ESE (120 degrees) at 6 MPH (5 knots; 2.6 m/s)
Visibility: 6 or more miles (10+ km)
Ceiling: 6000 feet AGL
Clouds: scattered clouds at 1100 feet AGL
broken clouds at 6000 feet AGL
Weather: SHRA BR  (rain showers, mist)

METAR text: RORS 190200Z 21005KT 160V260 9999 -SHRA FEW014 SCT050 BKN180 29/26 Q1005
Conditions at: RORS (SHIMOJI-SHIMA IS, JP) observed 0200 UTC 19 August 2019
Temperature: 29.0°C (84°F)
Dewpoint: 26.0°C (79°F) [RH = 84%]
Pressure (altimeter): 29.68 inches Hg (1005.0 mb)
Winds: from the SSW (210 degrees) at 6 MPH (5 knots; 2.6 m/s)
Visibility: 6 or more miles (10+ km)
Ceiling: 18000 feet AGL
Clouds: few clouds at 1400 feet AGL
scattered clouds at 5000 feet AGL
broken clouds at 18000 feet AGL
Weather: -SHRA  (light rain showers)

METAR text: RORS 190100Z 24003KT 150V320 9999 VCSH FEW011 BKN/// 28/26 Q1005
Conditions at: RORS (SHIMOJI-SHIMA IS, JP) observed 0100 UTC 19 August 2019
Temperature: 28.0°C (82°F)
Dewpoint: 26.0°C (79°F) [RH = 89%]
Pressure (altimeter): 29.68 inches Hg (1005.0 mb)
Winds: from the WSW (240 degrees) at 3 MPH (3 knots; 1.5 m/s)
Visibility: 6 or more miles (10+ km)
Ceiling: at least 12,000 feet AGL
Clouds: few clouds at 1100 feet AGL
Weather: VCSH  (showers in vicinity)

METAR text: RORS 190000Z 15003KT 110V180 9999 FEW010 BKN/// 28/26 Q1005
Conditions at: RORS (SHIMOJI-SHIMA IS, JP) observed 0000 UTC 19 August 2019
Temperature: 28.0°C (82°F)
Dewpoint: 26.0°C (79°F) [RH = 89%]
Pressure (altimeter): 29.68 inches Hg (1005.0 mb)
Winds: from the SSE (150 degrees) at 3 MPH (3 knots; 1.5 m/s)
Visibility: 6 or more miles (10+ km)
Ceiling: at least 12,000 feet AGL
Clouds: few clouds at 1000 feet AGL
Weather: no significant weather observed at this time

METAR text: RORS 182300Z 15004KT 9999 FEW010 FEW025TCU BKN/// 27/26 Q1004
Conditions at: RORS (SHIMOJI-SHIMA IS, JP) observed 2300 UTC 18 August 2019
Temperature: 27.0°C (81°F)
Dewpoint: 26.0°C (79°F) [RH = 94%]
Pressure (altimeter): 29.65 inches Hg (1004.0 mb)
Winds: from the SSE (150 degrees) at 5 MPH (4 knots; 2.1 m/s)
Visibility: 6 or more miles (10+ km)
Ceiling: at least 12,000 feet AGL
Clouds: few clouds at 1000 feet AGL
few clouds at 2500 feet AGL
Weather: no significant weather observed at this time

METAR text: RORS 182200Z 13006KT 9999 VCSH FEW010 BKN060 BKN/// 26/25 Q1004
Conditions at: RORS (SHIMOJI-SHIMA IS, JP) observed 2200 UTC 18 August 2019
Temperature: 26.0°C (79°F)
Dewpoint: 25.0°C (77°F) [RH = 94%]
Pressure (altimeter): 29.65 inches Hg (1004.0 mb)
Winds: from the SE (130 degrees) at 7 MPH (6 knots; 3.1 m/s)
Visibility: 6 or more miles (10+ km)
Ceiling: 6000 feet AGL
Clouds: few clouds at 1000 feet AGL
broken clouds at 6000 feet AGL
Weather: VCSH  (showers in vicinity)

METAR text: RORS 181000Z 36006KT 9999 VCSH FEW010 BKN190 27/25 Q1003
Conditions at: RORS (SHIMOJI-SHIMA IS, JP) observed 1000 UTC 18 August 2019
Temperature: 27.0°C (81°F)
Dewpoint: 25.0°C (77°F) [RH = 89%]
Pressure (altimeter): 29.62 inches Hg (1003.0 mb)
Winds: from the N (360 degrees) at 7 MPH (6 knots; 3.1 m/s)
Visibility: 6 or more miles (10+ km)
Ceiling: 19000 feet AGL
Clouds: few clouds at 1000 feet AGL
broken clouds at 19000 feet AGL
Weather: VCSH  (showers in vicinity)

METAR text: RORS 180900Z 34007KT 9999 FEW010 BKN150 27/25 Q1003
Conditions at: RORS (SHIMOJI-SHIMA IS, JP) observed 0900 UTC 18 August 2019
Temperature: 27.0°C (81°F)
Dewpoint: 25.0°C (77°F) [RH = 89%]
Pressure (altimeter): 29.62 inches Hg (1003.0 mb)
Winds: from the NNW (340 degrees) at 8 MPH (7 knots; 3.6 m/s)
Visibility: 6 or more miles (10+ km)
Ceiling: 15000 feet AGL
Clouds: few clouds at 1000 feet AGL
broken clouds at 15000 feet AGL
Weather: no significant weather observed at this time

METAR text: RORS 180800Z 36005KT 9999 FEW010 BKN160 28/24 Q1003
Conditions at: RORS (SHIMOJI-SHIMA IS, JP) observed 0800 UTC 18 August 2019
Temperature: 28.0°C (82°F)
Dewpoint: 24.0°C (75°F) [RH = 79%]
Pressure (altimeter): 29.62 inches Hg (1003.0 mb)
Winds: from the N (360 degrees) at 6 MPH (5 knots; 2.6 m/s)
Visibility: 6 or more miles (10+ km)
Ceiling: 16000 feet AGL
Clouds: few clouds at 1000 feet AGL
broken clouds at 16000 feet AGL
Weather: no significant weather observed at this time